Time;durP1;ratioP1;P1;durP2;ratioP2;P2;SDS_P1;SDS_P2;PMS_P1;PMS_P2;Temp;Humidity;BMP_temperature;BMP_pressure;BME280_temperature;BME280_humidity;BME280_pressure;Samples;Min_cycle;Max_cycle;Signal;HPM_P1;HPM_P2
2022/04/05 00:02:22;;;;;;;0.93;0.30;;;8.10;99.90;;;;;;5013351;28;20083;-82
2022/04/05 00:04:47;;;;;;;1.13;0.40;;;8.10;99.90;;;;;;5026862;28;20056;-82
2022/04/05 00:07:13;;;;;;;1.98;0.40;;;8.10;99.90;;;;;;4996325;28;20029;-83
2022/04/05 00:09:39;;;;;;;1.40;0.40;;;8.00;99.90;;;;;;5011749;28;20045;-82
2022/04/05 00:12:05;;;;;;;1.10;0.40;;;8.00;99.90;;;;;;5014027;28;20045;-82
2022/04/05 00:14:31;;;;;;;1.33;0.40;;;8.00;99.90;;;;;;5010292;28;20128;-82
2022/04/05 00:16:57;;;;;;;1.67;0.47;;;8.00;99.90;;;;;;4995017;28;20172;-82
2022/04/05 00:19:23;;;;;;;2.67;0.60;;;7.90;99.90;;;;;;5015628;28;20535;-82
2022/04/05 00:21:49;;;;;;;1.23;0.50;;;7.90;99.90;;;;;;5011922;28;20128;-82
2022/04/05 00:24:15;;;;;;;1.67;0.40;;;7.90;99.90;;;;;;5023297;28;20029;-82
2022/04/05 00:26:41;;;;;;;1.30;0.40;;;7.90;99.90;;;;;;5026746;28;20389;-82
2022/04/05 00:29:07;;;;;;;1.35;0.40;;;7.90;99.90;;;;;;5013870;28;20041;-82
2022/04/05 00:31:32;;;;;;;1.30;0.40;;;7.90;99.90;;;;;;4993775;28;20527;-82
2022/04/05 00:33:58;;;;;;;1.13;0.45;;;7.90;99.90;;;;;;4994102;28;20034;-81
2022/04/05 00:36:24;;;;;;;1.77;0.50;;;7.90;99.90;;;;;;5014260;28;20052;-82
2022/04/05 00:38:49;;;;;;;1.48;0.50;;;7.80;99.90;;;;;;4993889;28;20033;-81
2022/04/05 00:41:15;;;;;;;1.77;0.50;;;7.80;99.90;;;;;;5013310;28;20100;-82
2022/04/05 00:43:40;;;;;;;1.10;0.47;;;7.80;99.90;;;;;;5027353;28;20036;-82
2022/04/05 00:46:07;;;;;;;0.75;0.30;;;7.80;99.90;;;;;;5010270;28;20655;-82
2022/04/05 00:48:55;;;;;;;1.40;0.40;;;7.80;99.90;;;;;;4993875;28;20029;-82
2022/04/05 00:51:22;;;;;;;1.38;0.40;;;7.80;99.90;;;;;;5025584;28;20124;-82
2022/04/05 00:53:54;;;;;;;1.00;0.30;;;7.80;99.90;;;;;;5007485;28;20124;-82
2022/04/05 00:56:21;;;;;;;0.90;0.30;;;7.80;99.90;;;;;;4974266;28;20034;-82
2022/04/05 00:58:52;;;;;;;0.73;0.30;;;7.80;99.90;;;;;;4991830;28;20029;-81
2022/04/05 01:01:19;;;;;;;0.98;0.30;;;7.80;99.90;;;;;;5024892;28;20038;-81
2022/04/05 01:03:50;;;;;;;1.30;0.22;;;7.80;99.90;;;;;;5021223;28;20068;-82
2022/04/05 01:06:24;;;;;;;0.50;0.20;;;7.80;99.90;;;;;;4989166;28;20056;-82
2022/04/05 01:08:50;;;;;;;0.70;0.30;;;7.80;99.90;;;;;;5008474;28;20049;-83
2022/04/05 01:11:16;;;;;;;0.80;0.30;;;7.80;99.90;;;;;;5010924;28;20030;-81
2022/04/05 01:13:42;;;;;;;0.65;0.20;;;7.70;99.90;;;;;;5012984;28;20379;-82
2022/04/05 01:16:09;;;;;;;1.58;0.20;;;7.70;99.90;;;;;;5004432;28;20115;-82
2022/04/05 01:18:35;;;;;;;1.95;0.20;;;7.70;99.90;;;;;;5012971;28;20030;-82
2022/04/05 01:21:02;;;;;;;0.98;0.20;;;7.70;99.90;;;;;;5009822;28;20120;-82
2022/04/05 01:23:28;;;;;;;1.10;0.20;;;7.70;99.90;;;;;;5008042;28;20147;-82
2022/04/05 01:25:55;;;;;;;0.43;0.10;;;7.60;99.90;;;;;;4993475;28;20078;-82
2022/04/05 01:28:20;;;;;;;0.40;0.20;;;7.70;99.90;;;;;;4991648;28;20038;-82
2022/04/05 01:30:46;;;;;;;1.10;0.20;;;7.60;99.90;;;;;;4991775;28;20026;-82
2022/04/05 01:33:11;;;;;;;0.43;0.10;;;7.60;99.90;;;;;;5008921;28;20713;-81
2022/04/05 01:35:39;;;;;;;0.80;0.10;;;7.60;99.90;;;;;;5014369;28;20014;-82
2022/04/05 01:38:07;;;;;;;0.82;0.10;;;7.60;99.90;;;;;;4993732;28;20494;-82
2022/04/05 01:40:33;;;;;;;0.35;0.05;;;7.60;99.90;;;;;;4990974;28;20064;-81
2022/04/05 01:42:59;;;;;;;0.77;0.10;;;7.50;99.90;;;;;;5006759;28;20061;-82
2022/04/05 01:45:24;;;;;;;0.38;0.10;;;7.60;99.90;;;;;;5022083;28;20040;-81
2022/04/05 01:47:50;;;;;;;0.82;0.10;;;7.50;99.90;;;;;;5012913;28;20026;-82
2022/04/05 01:50:16;;;;;;;0.10;0.10;;;7.60;99.90;;;;;;5022006;28;20037;-81
2022/04/05 01:52:41;;;;;;;0.95;0.10;;;7.50;99.90;;;;;;5011929;28;20081;-81
2022/04/05 01:55:08;;;;;;;0.20;0.10;;;7.50;99.90;;;;;;4993833;28;20056;-82
2022/04/05 01:57:35;;;;;;;0.38;0.20;;;7.50;99.90;;;;;;4991006;28;20118;-83
2022/04/05 02:00:03;;;;;;;0.30;0.15;;;7.50;99.90;;;;;;4994829;28;20120;-81
2022/04/05 02:02:37;;;;;;;0.70;0.20;;;7.50;99.90;;;;;;5024924;28;20034;-81
2022/04/05 02:05:03;;;;;;;0.73;0.20;;;7.50;99.90;;;;;;5012504;28;20095;-82
2022/04/05 02:07:29;;;;;;;1.17;0.20;;;7.50;99.90;;;;;;5009117;28;20375;-82
2022/04/05 02:09:55;;;;;;;0.50;0.10;;;7.40;99.90;;;;;;5012411;28;20037;-82
2022/04/05 02:12:20;;;;;;;0.93;0.20;;;7.50;99.90;;;;;;5010628;28;20035;-82
2022/04/05 02:14:57;;;;;;;0.20;0.10;;;7.40;99.90;;;;;;4992784;28;20448;-82
2022/04/05 02:17:33;;;;;;;0.40;0.20;;;7.50;99.90;;;;;;5005640;28;20481;-82
2022/04/05 02:20:03;;;;;;;1.48;0.30;;;7.40;99.90;;;;;;4994278;28;20133;-82
2022/04/05 02:22:30;;;;;;;1.65;0.20;;;7.50;99.90;;;;;;5009808;28;20115;-82
2022/04/05 02:25:03;;;;;;;3.10;0.30;;;7.40;99.90;;;;;;5018194;28;20474;-82
2022/04/05 02:27:31;;;;;;;2.33;0.32;;;7.40;99.90;;;;;;5025059;28;20437;-81
2022/04/05 02:29:57;;;;;;;3.50;0.40;;;7.40;99.90;;;;;;5003048;28;20039;-82
2022/04/05 02:32:23;;;;;;;2.05;0.30;;;7.40;99.90;;;;;;5009065;28;20109;-81
2022/04/05 02:34:50;;;;;;;1.52;0.30;;;7.50;99.90;;;;;;5008714;28;20048;-83
2022/04/05 02:37:16;;;;;;;1.85;0.20;;;7.40;99.90;;;;;;5009931;28;20026;-82
2022/04/05 02:39:42;;;;;;;0.80;0.20;;;7.40;99.90;;;;;;5019130;28;20028;-82
2022/04/05 02:42:09;;;;;;;0.60;0.20;;;7.40;99.90;;;;;;4996413;28;20124;-83
2022/04/05 02:44:39;;;;;;;2.35;0.30;;;7.40;99.90;;;;;;4997774;28;20057;-83
2022/04/05 02:47:07;;;;;;;1.58;0.20;;;7.40;99.90;;;;;;4987436;28;20433;-82
2022/04/05 02:49:35;;;;;;;0.68;0.17;;;7.40;99.90;;;;;;5023120;28;20033;-82
2022/04/05 02:52:04;;;;;;;0.50;0.20;;;7.40;99.90;;;;;;4990117;28;20037;-82
2022/04/05 02:54:39;;;;;;;1.05;0.30;;;7.40;99.90;;;;;;5018307;28;20383;-82
2022/04/05 02:57:07;;;;;;;1.08;0.20;;;7.40;99.90;;;;;;5011525;28;20033;-83
2022/04/05 02:59:33;;;;;;;0.75;0.20;;;7.40;99.90;;;;;;5010367;28;20029;-82
2022/04/05 03:02:00;;;;;;;0.40;0.10;;;7.30;99.90;;;;;;5024741;28;20044;-82
2022/04/05 03:04:26;;;;;;;0.52;0.22;;;7.40;99.90;;;;;;4991750;28;20474;-82
2022/04/05 03:06:52;;;;;;;2.15;0.30;;;7.40;99.90;;;;;;4990058;28;20030;-82
2022/04/05 03:09:18;;;;;;;1.02;0.30;;;7.40;99.90;;;;;;5010688;28;20048;-82
2022/04/05 03:11:44;;;;;;;0.70;0.30;;;7.40;99.90;;;;;;5010992;28;20025;-83
2022/04/05 03:14:13;;;;;;;2.05;0.50;;;7.30;99.90;;;;;;5008320;28;20022;-82
2022/04/05 03:16:40;;;;;;;1.17;0.43;;;7.30;99.90;;;;;;5005654;28;20021;-82
2022/04/05 03:19:12;;;;;;;1.27;0.38;;;7.30;99.90;;;;;;4999932;28;20029;-83
2022/04/05 03:21:38;;;;;;;1.67;0.40;;;7.30;99.90;;;;;;4999316;28;20079;-83
2022/04/05 03:24:04;;;;;;;1.13;0.40;;;7.30;99.90;;;;;;5020465;28;20119;-82
2022/04/05 03:26:29;;;;;;;0.90;0.30;;;7.30;99.90;;;;;;5006042;28;20091;-83
2022/04/05 03:28:57;;;;;;;1.45;0.38;;;7.30;99.90;;;;;;5008350;28;20132;-83
2022/04/05 03:31:24;;;;;;;1.15;0.30;;;7.30;99.90;;;;;;5010369;28;20080;-82
2022/04/05 03:33:52;;;;;;;0.90;0.40;;;7.30;99.90;;;;;;5010652;28;20108;-83
2022/04/05 03:36:18;;;;;;;1.55;0.70;;;7.30;99.90;;;;;;5005763;28;20060;-82
2022/04/05 03:38:44;;;;;;;1.00;0.45;;;7.30;99.90;;;;;;5004283;28;20057;-82
2022/04/05 03:41:13;;;;;;;1.60;0.65;;;7.30;99.90;;;;;;5021103;28;20502;-82
2022/04/05 03:43:41;;;;;;;2.17;0.70;;;7.30;99.90;;;;;;4990792;28;20117;-83
2022/04/05 03:46:08;;;;;;;1.67;0.68;;;7.30;99.90;;;;;;5011012;28;20116;-82
2022/04/05 03:48:34;;;;;;;1.85;0.50;;;7.30;99.90;;;;;;5004879;28;20470;-82
2022/04/05 03:51:09;;;;;;;2.15;0.70;;;7.30;99.90;;;;;;5005476;28;20025;-82
2022/04/05 03:53:36;;;;;;;1.52;0.50;;;7.30;99.90;;;;;;5008445;28;20057;-82
2022/04/05 03:56:03;;;;;;;1.27;0.50;;;7.30;99.90;;;;;;5004999;28;20109;-82
2022/04/05 03:58:30;;;;;;;1.58;0.40;;;7.30;99.90;;;;;;4991165;28;20026;-83
2022/04/05 04:00:56;;;;;;;3.60;1.00;;;7.30;99.90;;;;;;5011157;28;20496;-82
2022/04/05 04:03:28;;;;;;;2.03;0.82;;;7.30;99.90;;;;;;5016888;28;20397;-82
2022/04/05 04:05:53;;;;;;;3.13;0.95;;;7.30;99.90;;;;;;4991355;28;20026;-82
2022/04/05 04:08:20;;;;;;;1.85;0.90;;;7.30;99.90;;;;;;4992146;28;20047;-82
2022/04/05 04:10:48;;;;;;;2.00;0.90;;;7.30;99.90;;;;;;4993649;28;20110;-83
2022/04/05 04:13:16;;;;;;;1.58;0.77;;;7.30;99.90;;;;;;5023300;28;20279;-82
2022/04/05 04:15:46;;;;;;;1.10;0.50;;;7.30;99.90;;;;;;4991925;28;20383;-82
2022/04/05 04:18:13;;;;;;;1.15;0.50;;;7.30;99.90;;;;;;4990204;28;20079;-82
2022/04/05 04:20:44;;;;;;;1.33;0.50;;;7.20;99.90;;;;;;5023094;28;20467;-82
2022/04/05 04:23:11;;;;;;;2.03;0.70;;;7.30;99.90;;;;;;5005709;28;20422;-82
2022/04/05 04:25:42;;;;;;;2.83;0.80;;;7.20;99.90;;;;;;4991108;28;20018;-82
2022/04/05 04:28:10;;;;;;;2.55;0.90;;;7.20;99.90;;;;;;5010573;28;20040;-82
2022/04/05 04:30:37;;;;;;;3.03;0.88;;;7.30;99.90;;;;;;5008245;28;20426;-82
2022/04/05 04:33:04;;;;;;;2.65;0.80;;;7.30;99.90;;;;;;4998642;28;20025;-82
2022/04/05 04:35:30;;;;;;;2.00;0.82;;;7.30;99.90;;;;;;5003176;28;20105;-82
2022/04/05 04:37:56;;;;;;;2.58;0.80;;;7.30;99.90;;;;;;5011670;28;20048;-81
2022/04/05 04:40:22;;;;;;;2.95;0.95;;;7.30;99.90;;;;;;5004991;28;20083;-82
2022/04/05 04:42:47;;;;;;;2.20;0.95;;;7.30;99.90;;;;;;4996968;28;20032;-82
2022/04/05 04:45:14;;;;;;;2.63;0.80;;;7.30;99.90;;;;;;5005970;28;20469;-81
2022/04/05 04:47:40;;;;;;;2.15;0.70;;;7.30;99.90;;;;;;5024492;28;20068;-82
2022/04/05 04:50:07;;;;;;;1.70;0.60;;;7.30;99.90;;;;;;4988063;28;20037;-82
2022/04/05 04:52:34;;;;;;;1.60;0.50;;;7.40;99.90;;;;;;5022268;28;20045;-81
2022/04/05 04:55:00;;;;;;;1.58;0.60;;;7.40;99.90;;;;;;5024670;28;20112;-82
2022/04/05 04:57:25;;;;;;;2.80;0.60;;;7.40;99.90;;;;;;5014190;28;20048;-83
2022/04/05 04:59:52;;;;;;;1.40;0.50;;;7.40;99.90;;;;;;5027353;28;20494;-81
2022/04/05 05:02:18;;;;;;;2.03;0.52;;;7.40;99.90;;;;;;4992131;28;20028;-82
2022/04/05 05:04:44;;;;;;;1.10;0.45;;;7.40;99.90;;;;;;5012398;28;20029;-83
2022/04/05 05:07:10;;;;;;;2.95;0.88;;;7.40;99.90;;;;;;5020642;28;20405;-82
2022/04/05 05:09:35;;;;;;;2.60;0.70;;;7.40;99.90;;;;;;5025879;28;20038;-82
2022/04/05 05:12:02;;;;;;;2.30;0.60;;;7.40;99.90;;;;;;5012896;28;20036;-83
2022/04/05 05:14:28;;;;;;;2.15;0.47;;;7.40;99.90;;;;;;5005720;28;20029;-82
2022/04/05 05:16:54;;;;;;;2.38;0.52;;;7.40;99.90;;;;;;4993197;28;20121;-83
2022/04/05 05:19:23;;;;;;;1.65;0.60;;;7.40;99.90;;;;;;5009477;28;20037;-83
2022/04/05 05:21:48;;;;;;;1.33;0.55;;;7.40;99.90;;;;;;5009998;28;20083;-83
2022/04/05 05:24:14;;;;;;;1.80;0.60;;;7.40;99.90;;;;;;5018907;28;20028;-82
2022/04/05 05:26:40;;;;;;;2.55;0.80;;;7.40;99.90;;;;;;5013024;28;20124;-83
2022/04/05 05:29:05;;;;;;;1.60;0.50;;;7.40;99.90;;;;;;5024240;28;20045;-83
2022/04/05 05:31:31;;;;;;;2.55;0.73;;;7.40;99.90;;;;;;5025514;28;20029;-83
2022/04/05 05:33:57;;;;;;;2.75;0.77;;;7.40;99.90;;;;;;5013330;28;20029;-82
2022/04/05 05:36:23;;;;;;;2.20;0.98;;;7.40;99.90;;;;;;5012132;28;20037;-82
2022/04/05 05:38:48;;;;;;;3.75;1.00;;;7.50;99.90;;;;;;5012636;28;20029;-82
2022/04/05 05:41:14;;;;;;;3.72;1.13;;;7.50;99.90;;;;;;5010871;28;20036;-82
2022/04/05 05:43:41;;;;;;;2.80;1.20;;;7.50;99.90;;;;;;5005641;28;20034;-83
2022/04/05 05:46:07;;;;;;;2.65;1.13;;;7.50;99.90;;;;;;5007602;28;20018;-82
2022/04/05 05:48:33;;;;;;;3.13;1.17;;;7.50;99.90;;;;;;5022398;28;20393;-82
2022/04/05 05:50:59;;;;;;;3.50;1.50;;;7.60;99.90;;;;;;5010521;28;20033;-82
2022/04/05 05:53:25;;;;;;;2.90;1.10;;;7.50;99.90;;;;;;5021267;28;20072;-83
2022/04/05 05:55:51;;;;;;;3.60;1.30;;;7.50;99.90;;;;;;5025704;28;20128;-82
2022/04/05 05:58:16;;;;;;;3.45;1.38;;;7.60;99.90;;;;;;4993503;28;20030;-82
2022/04/05 06:00:42;;;;;;;3.05;1.40;;;7.60;99.90;;;;;;5010762;28;20026;-82
2022/04/05 06:03:12;;;;;;;4.63;1.60;;;7.60;99.90;;;;;;5010571;28;20037;-83
2022/04/05 06:05:40;;;;;;;3.95;2.03;;;7.60;99.90;;;;;;4980912;28;20116;-82
2022/04/05 06:08:06;;;;;;;5.20;2.13;;;7.60;99.90;;;;;;5027227;28;20048;-82
2022/04/05 06:10:31;;;;;;;4.45;2.55;;;7.60;99.90;;;;;;4991064;28;20043;-83
2022/04/05 06:12:57;;;;;;;3.70;2.00;;;7.60;99.90;;;;;;5009219;28;20397;-83
2022/04/05 06:15:25;;;;;;;6.20;2.72;;;7.60;99.90;;;;;;5005969;28;20481;-82
2022/04/05 06:17:52;;;;;;;4.72;2.35;;;7.70;99.90;;;;;;5010889;28;20028;-83
2022/04/05 06:20:19;;;;;;;5.72;2.25;;;7.70;99.90;;;;;;5028290;28;20045;-82
2022/04/05 06:22:48;;;;;;;5.30;2.30;;;7.70;99.90;;;;;;5009091;28;20033;-82
2022/04/05 06:25:19;;;;;;;5.20;2.63;;;7.70;99.90;;;;;;5010130;28;20188;-82
2022/04/05 06:27:45;;;;;;;5.32;3.03;;;7.70;99.90;;;;;;4992869;28;20095;-83
2022/04/05 06:30:13;;;;;;;5.38;2.88;;;7.80;99.90;;;;;;5024838;28;20418;-82
2022/04/05 06:32:39;;;;;;;5.20;2.60;;;7.80;99.90;;;;;;5021777;28;20026;-83
2022/04/05 06:35:07;;;;;;;4.55;2.40;;;7.90;99.90;;;;;;5006307;28;20055;-82
2022/04/05 06:37:33;;;;;;;8.20;5.47;;;7.90;99.90;;;;;;5010074;28;20057;-82
2022/04/05 06:39:58;;;;;;;6.75;4.40;;;8.20;99.90;;;;;;5023135;28;20037;-82
2022/04/05 06:42:25;;;;;;;7.85;5.05;;;8.20;99.90;;;;;;5006676;28;20095;-82
2022/04/05 06:44:52;;;;;;;9.35;6.57;;;8.20;99.90;;;;;;5010876;28;20025;-82
2022/04/05 06:47:18;;;;;;;10.18;7.20;;;8.40;99.90;;;;;;5016322;28;20052;-82
2022/04/05 06:49:44;;;;;;;10.48;7.75;;;8.40;99.90;;;;;;4999610;28;20049;-82
2022/04/05 06:52:09;;;;;;;12.27;8.85;;;8.60;99.90;;;;;;5008335;28;20051;-83
2022/04/05 06:54:35;;;;;;;12.38;9.68;;;8.70;99.90;;;;;;5002846;28;20049;-83
2022/04/05 06:57:00;;;;;;;14.80;10.27;;;8.70;99.90;;;;;;4993514;28;20045;-84
2022/04/05 06:59:26;;;;;;;13.55;11.00;;;8.80;99.90;;;;;;5019494;28;20053;-83
2022/04/05 07:01:52;;;;;;;15.02;10.55;;;9.10;99.90;;;;;;5024335;28;20041;-83
2022/04/05 07:04:17;;;;;;;15.63;11.07;;;9.10;99.90;;;;;;5007344;28;20041;-83
2022/04/05 07:06:43;;;;;;;15.63;11.52;;;9.10;99.90;;;;;;5000700;28;20047;-83
2022/04/05 07:09:09;;;;;;;13.50;10.73;;;9.20;99.90;;;;;;4996674;28;20049;-83
2022/04/05 07:11:35;;;;;;;16.05;11.40;;;9.20;99.90;;;;;;5009447;28;20029;-84
2022/04/05 07:14:00;;;;;;;14.20;10.95;;;9.20;99.90;;;;;;5026212;28;20509;-83
2022/04/05 07:16:26;;;;;;;16.63;11.95;;;9.20;99.90;;;;;;5001748;28;20034;-84
2022/04/05 07:18:51;;;;;;;18.77;12.63;;;9.20;99.90;;;;;;4993170;28;20375;-84
2022/04/05 07:21:20;;;;;;;19.38;13.48;;;9.20;99.90;;;;;;5007397;28;20481;-83
2022/04/05 07:23:47;;;;;;;17.50;12.35;;;9.20;99.90;;;;;;4990022;28;20478;-83
2022/04/05 07:26:13;;;;;;;20.42;13.90;;;9.30;99.90;;;;;;5010712;28;20033;-83
2022/04/05 07:28:39;;;;;;;20.23;11.35;;;9.30;99.90;;;;;;5007279;28;20030;-84
2022/04/05 07:31:05;;;;;;;16.98;11.98;;;9.30;99.90;;;;;;5005257;28;20361;-83
2022/04/05 07:33:30;;;;;;;15.07;12.00;;;9.30;99.90;;;;;;5008308;28;20087;-84
2022/04/05 07:35:57;;;;;;;23.38;13.90;;;9.30;99.90;;;;;;5009886;28;20544;-82
2022/04/05 07:38:23;;;;;;;20.75;13.10;;;9.30;99.90;;;;;;5026149;28;20026;-84
2022/04/05 07:40:48;;;;;;;21.80;12.93;;;9.30;99.90;;;;;;4993747;28;20030;-84
2022/04/05 07:43:24;;;;;;;17.52;11.68;;;9.40;99.90;;;;;;5008241;28;20029;-83
2022/04/05 07:45:51;;;;;;;18.48;11.50;;;9.40;99.90;;;;;;5009537;28;20038;-84
2022/04/05 07:48:23;;;;;;;14.73;10.23;;;9.40;99.90;;;;;;4990320;28;20040;-84
2022/04/05 07:50:49;;;;;;;12.13;8.63;;;9.50;99.90;;;;;;5007731;28;20033;-84
2022/04/05 07:53:15;;;;;;;14.15;9.90;;;9.50;99.90;;;;;;5005881;28;20091;-83
2022/04/05 07:55:41;;;;;;;16.35;9.65;;;9.60;99.90;;;;;;5016175;28;20065;-83
2022/04/05 07:58:07;;;;;;;14.25;9.52;;;9.60;99.90;;;;;;5003375;28;20072;-83
2022/04/05 08:00:33;;;;;;;13.32;8.88;;;9.70;99.90;;;;;;5019062;28;20029;-85
2022/04/05 08:02:58;;;;;;;13.35;8.05;;;9.70;99.90;;;;;;5003489;28;20497;-84
2022/04/05 08:05:24;;;;;;;13.10;8.50;;;9.80;99.90;;;;;;4991022;28;20072;-84
2022/04/05 08:07:51;;;;;;;12.13;7.90;;;9.90;99.90;;;;;;5009296;28;20041;-84
2022/04/05 08:10:17;;;;;;;15.23;9.70;;;9.90;99.90;;;;;;5011120;28;20034;-85
2022/04/05 08:12:48;;;;;;;13.05;8.88;;;9.90;99.90;;;;;;5018244;28;20084;-83
2022/04/05 08:15:17;;;;;;;15.20;8.07;;;9.90;99.90;;;;;;5005454;28;20036;-87
2022/04/05 08:17:42;;;;;;;12.13;7.53;;;9.80;99.90;;;;;;5008457;28;20160;-83
2022/04/05 08:20:09;;;;;;;14.20;8.57;;;9.90;99.90;;;;;;5029910;28;20120;-83
2022/04/05 08:22:34;;;;;;;13.90;8.27;;;9.90;99.90;;;;;;5013566;28;20116;-83
2022/04/05 08:25:00;;;;;;;12.57;8.13;;;9.90;99.90;;;;;;5016043;28;20476;-83
2022/04/05 08:27:26;;;;;;;12.00;7.57;;;10.00;99.90;;;;;;4997854;28;20052;-84
2022/04/05 08:29:51;;;;;;;10.88;7.25;;;10.00;99.90;;;;;;5010625;28;20038;-84
2022/04/05 08:32:17;;;;;;;14.88;7.80;;;10.00;99.90;;;;;;5009223;28;20030;-84
2022/04/05 08:34:45;;;;;;;12.60;7.13;;;10.00;99.90;;;;;;5013127;28;20025;-84
2022/04/05 08:37:11;;;;;;;10.27;7.03;;;9.90;99.90;;;;;;5012240;28;20504;-83
2022/04/05 08:39:41;;;;;;;9.40;5.93;;;9.90;99.90;;;;;;5012079;28;20035;-84
2022/04/05 08:42:08;;;;;;;12.20;7.20;;;9.90;99.90;;;;;;5013528;28;20086;-83
2022/04/05 08:44:34;;;;;;;8.50;5.47;;;10.00;99.90;;;;;;5031412;28;20017;-84
2022/04/05 08:47:01;;;;;;;8.55;6.15;;;10.10;99.90;;;;;;4994416;28;20040;-82
2022/04/05 08:49:31;;;;;;;10.93;6.72;;;10.10;99.90;;;;;;5015993;28;20034;-82
2022/04/05 08:51:57;;;;;;;9.70;6.50;;;10.00;99.90;;;;;;5025187;28;20092;-84
2022/04/05 08:54:23;;;;;;;9.40;6.15;;;10.20;99.90;;;;;;5012600;28;20389;-82
2022/04/05 08:56:50;;;;;;;9.55;5.82;;;10.10;99.90;;;;;;5028197;28;20523;-83
2022/04/05 08:59:16;;;;;;;7.75;5.65;;;10.20;99.90;;;;;;5007155;28;20127;-83
2022/04/05 09:01:42;;;;;;;8.80;5.40;;;10.20;99.90;;;;;;5009332;28;20029;-84
2022/04/05 09:04:10;;;;;;;8.50;5.97;;;10.20;99.90;;;;;;5014606;28;20042;-84
2022/04/05 09:06:36;;;;;;;7.57;5.25;;;10.20;99.90;;;;;;4995094;28;20129;-84
2022/04/05 09:09:14;;;;;;;8.85;6.10;;;10.30;99.90;;;;;;5010018;28;20410;-83
2022/04/05 09:11:44;;;;;;;10.63;6.32;;;10.40;99.90;;;;;;5008150;28;20021;-84
2022/04/05 09:14:10;;;;;;;10.63;7.20;;;10.40;99.90;;;;;;5003113;28;20038;-85
2022/04/05 09:16:36;;;;;;;8.52;5.72;;;10.30;99.90;;;;;;5002415;28;20122;-84
2022/04/05 09:19:15;;;;;;;6.93;6.07;;;10.50;99.90;;;;;;5001435;28;20030;-84
2022/04/05 09:21:53;;;;;;;8.35;6.22;;;10.80;99.90;;;;;;5001315;28;20636;-82
2022/04/05 09:24:19;;;;;;;10.30;5.97;;;10.90;99.90;;;;;;4980845;28;20509;-83
2022/04/05 09:26:46;;;;;;;6.45;5.38;;;10.90;99.90;;;;;;5006953;28;20033;-83
2022/04/05 09:29:13;;;;;;;10.90;7.03;;;11.10;99.90;;;;;;4985720;28;20065;-84
2022/04/05 09:31:48;;;;;;;7.32;6.30;;;11.00;99.90;;;;;;4999816;28;20568;-84
2022/04/05 09:34:19;;;;;;;9.60;6.35;;;11.00;99.90;;;;;;4983464;28;20032;-83
2022/04/05 09:36:48;;;;;;;7.70;6.05;;;11.10;99.90;;;;;;5000902;28;20033;-83
2022/04/05 09:39:17;;;;;;;7.63;5.68;;;10.90;99.90;;;;;;5009956;28;20037;-85
2022/04/05 09:41:58;;;;;;;9.70;5.80;;;11.10;99.90;;;;;;5020517;28;20182;-83
2022/04/05 09:44:26;;;;;;;9.50;5.50;;;11.10;99.90;;;;;;5001421;28;20041;-84
2022/04/05 09:47:06;;;;;;;8.60;4.85;;;11.30;99.90;;;;;;4986188;28;20029;-85
2022/04/05 09:49:40;;;;;;;8.85;6.00;;;11.20;99.90;;;;;;5000329;28;20163;-84
2022/04/05 09:52:31;;;;;;;8.57;5.68;;;11.20;99.90;;;;;;5000706;28;20053;-84
2022/04/05 09:55:12;;;;;;;6.47;5.22;;;11.40;99.90;;;;;;4999277;28;20029;-84
2022/04/05 09:57:38;;;;;;;8.07;4.30;;;11.30;99.90;;;;;;4987184;28;20030;-84
2022/04/05 10:00:17;;;;;;;7.68;4.80;;;11.20;99.90;;;;;;5016925;28;20029;-83
2022/04/05 10:03:09;;;;;;;7.07;4.75;;;11.20;99.90;;;;;;4968031;28;20034;-81
2022/04/05 10:05:35;;;;;;;9.35;5.45;;;11.00;99.90;;;;;;4986818;28;20494;-86
2022/04/05 10:08:04;;;;;;;5.47;4.03;;;10.80;99.90;;;;;;5018497;28;20030;-84
2022/04/05 10:10:29;;;;;;;6.32;4.82;;;10.80;99.90;;;;;;5013711;28;20172;-85
2022/04/05 10:12:55;;;;;;;6.55;4.63;;;10.90;99.90;;;;;;5020359;28;20082;-84
2022/04/05 10:15:21;;;;;;;4.82;3.30;;;11.20;99.90;;;;;;4992385;28;20041;-85
2022/04/05 10:17:53;;;;;;;6.05;3.70;;;11.20;99.90;;;;;;5004750;28;20029;-83
2022/04/05 10:20:19;;;;;;;4.47;3.55;;;11.30;99.90;;;;;;5002098;28;20034;-82
2022/04/05 10:22:52;;;;;;;4.28;3.22;;;11.50;99.90;;;;;;4985637;28;20042;-84
2022/04/05 10:25:18;;;;;;;5.22;2.78;;;11.50;99.90;;;;;;5020098;28;20021;-82
2022/04/05 10:27:44;;;;;;;3.97;2.28;;;11.50;99.90;;;;;;5020389;28;20041;-86
2022/04/05 10:30:24;;;;;;;2.42;1.55;;;11.30;99.90;;;;;;4997231;28;20045;-87
2022/04/05 10:33:12;;;;;;;2.53;1.35;;;11.10;99.90;;;;;;5015315;28;20533;-87
2022/04/05 10:35:47;;;;;;;3.97;1.90;;;11.00;99.90;;;;;;5002218;28;20036;-86
2022/04/05 10:38:15;;;;;;;3.03;1.70;;;10.80;99.90;;;;;;4985499;28;20029;-88
2022/04/05 10:40:40;;;;;;;4.22;2.22;;;10.90;99.90;;;;;;5001006;28;20037;-84
2022/04/05 10:43:19;;;;;;;5.57;3.35;;;10.90;99.90;;;;;;4999586;28;20025;-86
2022/04/05 10:45:45;;;;;;;3.85;3.38;;;10.90;99.90;;;;;;4983813;28;20132;-86
2022/04/05 10:48:18;;;;;;;5.57;4.10;;;11.00;99.90;;;;;;5001729;28;20051;-85
2022/04/05 10:51:09;;;;;;;6.47;4.47;;;11.10;99.90;;;;;;4997576;28;20436;-85
2022/04/05 10:53:37;;;;;;;7.15;5.38;;;11.00;99.90;;;;;;4990310;28;20044;-83
2022/04/05 10:56:11;;;;;;;8.18;5.65;;;10.90;99.90;;;;;;4999837;28;20103;-85
2022/04/05 10:58:47;;;;;;;6.13;4.57;;;10.90;99.90;;;;;;4967845;28;22341;-83
2022/04/05 11:01:18;;;;;;;8.90;5.70;;;11.00;99.90;;;;;;5000053;28;20498;-82
2022/04/05 11:04:09;;;;;;;10.82;6.22;;;11.10;99.90;;;;;;5004154;28;20044;-87
2022/04/05 11:07:03;;;;;;;6.32;5.38;;;11.10;99.90;;;;;;4995522;28;20049;-85
2022/04/05 11:09:52;;;;;;;6.70;4.90;;;11.10;99.90;;;;;;5003209;28;20560;-85
2022/04/05 11:12:30;;;;;;;7.28;5.43;;;11.20;99.90;;;;;;4997087;28;20033;-84
2022/04/05 11:14:59;;;;;;;8.07;5.55;;;11.20;99.90;;;;;;4971974;28;20034;-85
2022/04/05 11:17:27;;;;;;;6.53;5.72;;;11.20;99.90;;;;;;4981872;28;20029;-84
2022/04/05 11:19:55;;;;;;;14.32;6.63;;;11.20;99.90;;;;;;4981440;28;20048;-84
2022/04/05 11:22:21;;;;;;;7.00;5.90;;;11.20;99.90;;;;;;4980324;28;20032;-83
2022/04/05 11:24:50;;;;;;;6.35;5.40;;;11.20;99.90;;;;;;4986231;28;20025;-86
2022/04/05 11:27:32;;;;;;;7.83;5.27;;;11.00;99.90;;;;;;5000414;28;20037;-82
2022/04/05 11:30:25;;;;;;;7.47;5.22;;;11.00;99.90;;;;;;5000665;28;20608;-85
2022/04/05 11:33:06;;;;;;;6.95;5.40;;;10.90;99.90;;;;;;4985126;28;20394;-84
2022/04/05 11:35:43;;;;;;;8.70;5.68;;;10.70;99.90;;;;;;5001550;28;20036;-83
2022/04/05 11:38:19;;;;;;;9.98;6.18;;;10.70;99.90;;;;;;4997920;28;20030;-83
2022/04/05 11:40:51;;;;;;;8.20;6.03;;;10.70;99.90;;;;;;4999148;28;20343;-82
2022/04/05 11:43:30;;;;;;;8.63;7.28;;;10.80;99.90;;;;;;4980309;28;20032;-83
2022/04/05 11:46:04;;;;;;;10.95;7.43;;;10.90;99.90;;;;;;4997266;28;20129;-83
2022/04/05 11:48:31;;;;;;;10.82;7.97;;;11.00;99.90;;;;;;4992943;28;20072;-82
2022/04/05 11:51:06;;;;;;;9.52;7.13;;;11.30;99.90;;;;;;4960488;28;20049;-84
2022/04/05 11:53:31;;;;;;;10.57;8.10;;;11.30;99.90;;;;;;5012019;28;20053;-84
2022/04/05 11:56:05;;;;;;;9.05;7.25;;;11.30;99.90;;;;;;4998481;28;20032;-83
2022/04/05 11:58:34;;;;;;;7.95;5.97;;;11.50;99.90;;;;;;5013750;28;20032;-85
2022/04/05 12:01:08;;;;;;;7.20;6.13;;;11.50;99.90;;;;;;4998512;28;20044;-85
2022/04/05 12:03:49;;;;;;;8.02;5.65;;;11.50;99.90;;;;;;5016762;28;20045;-84
2022/04/05 12:06:22;;;;;;;6.28;5.25;;;11.60;99.90;;;;;;4941337;28;20053;-84
2022/04/05 12:08:49;;;;;;;10.80;7.85;;;11.90;99.90;;;;;;4985412;28;20072;-83
2022/04/05 12:11:16;;;;;;;11.18;8.45;;;11.60;99.90;;;;;;5011042;28;20041;-85
2022/04/05 12:13:53;;;;;;;8.85;7.95;;;11.70;99.90;;;;;;4999945;28;20057;-84
2022/04/05 12:16:20;;;;;;;8.48;7.55;;;11.70;99.90;;;;;;5002274;28;20445;-84
2022/04/05 12:18:46;;;;;;;11.15;9.77;;;11.60;99.90;;;;;;4983273;28;20065;-84
2022/04/05 12:21:11;;;;;;;10.95;9.13;;;11.40;99.90;;;;;;4999866;28;20152;-83
2022/04/05 12:23:43;;;;;;;10.45;8.70;;;11.50;99.90;;;;;;4983661;28;20033;-84
2022/04/05 12:26:19;;;;;;;13.23;9.50;;;11.70;99.90;;;;;;5005000;28;20040;-84
2022/04/05 12:28:53;;;;;;;8.68;7.70;;;12.00;99.90;;;;;;4987727;28;20037;-86
2022/04/05 12:31:28;;;;;;;9.82;8.10;;;12.20;99.90;;;;;;4989639;28;20494;-84
2022/04/05 12:34:13;;;;;;;10.77;8.07;;;12.40;99.90;;;;;;4987156;28;20029;-85
2022/04/05 12:36:57;;;;;;;12.35;7.57;;;12.90;99.90;;;;;;5010630;28;20064;-85
2022/04/05 12:39:26;;;;;;;9.13;7.50;;;12.90;99.90;;;;;;4996492;28;20040;-83
2022/04/05 12:41:57;;;;;;;8.57;6.47;;;12.70;99.90;;;;;;5011939;28;20038;-86
2022/04/05 12:44:27;;;;;;;10.25;7.30;;;12.90;99.90;;;;;;5002585;28;20264;-85
2022/04/05 12:47:04;;;;;;;6.20;5.40;;;13.10;99.90;;;;;;4983776;28;20043;-88
2022/04/05 12:49:34;;;;;;;6.72;4.32;;;13.00;99.90;;;;;;5017703;28;20509;-85
2022/04/05 12:52:16;;;;;;;8.48;5.05;;;12.80;99.90;;;;;;4979170;28;20050;-87
2022/04/05 12:54:57;;;;;;;8.00;4.40;;;12.40;99.90;;;;;;4999748;28;20096;-87
2022/04/05 12:57:47;;;;;;;4.40;3.60;;;12.20;99.90;;;;;;4974575;28;20035;-86
2022/04/05 13:00:19;;;;;;;8.27;3.78;;;12.00;99.90;;;;;;4998860;28;20066;-86